createdAt,value
2023-03-21T00:01:03.884Z,11.13
2023-03-21T00:06:09.419Z,11.88
2023-03-21T00:08:38.050Z,11.73
2023-03-21T00:11:09.750Z,13.10
2023-03-21T00:13:43.426Z,14.98
2023-03-21T00:16:23.203Z,12.70
2023-03-21T00:18:58.489Z,11.30
2023-03-21T00:24:16.762Z,14.05
2023-03-21T00:26:45.047Z,12.00
2023-03-21T00:29:15.438Z,12.95
2023-03-21T00:31:43.242Z,11.50
2023-03-21T00:36:44.324Z,11.43
2023-03-21T00:39:12.328Z,15.02
2023-03-21T00:41:43.155Z,8.80
2023-03-21T00:44:15.668Z,11.57
2023-03-21T00:46:57.052Z,17.00
2023-03-21T00:49:33.990Z,13.65
2023-03-21T00:52:17.080Z,11.00
2023-03-21T00:54:48.438Z,13.35
2023-03-21T00:57:16.844Z,13.43
2023-03-21T00:59:44.931Z,9.95
2023-03-21T01:02:22.704Z,17.63
2023-03-21T01:04:50.867Z,15.40
2023-03-21T01:07:18.685Z,12.90
2023-03-21T01:09:46.790Z,11.43
2023-03-21T01:12:14.608Z,13.50
2023-03-21T01:14:42.588Z,11.32
2023-03-21T01:17:10.462Z,11.13
2023-03-21T01:19:51.215Z,10.95
2023-03-21T01:22:20.334Z,14.65
2023-03-21T01:25:05.643Z,15.18
2023-03-21T01:27:36.796Z,15.98
2023-03-21T01:30:11.267Z,11.65
2023-03-21T01:32:45.255Z,14.23
2023-03-21T01:35:13.333Z,11.10
2023-03-21T01:37:41.238Z,14.27
2023-03-21T01:40:12.768Z,17.23
2023-03-21T01:42:42.262Z,12.02
2023-03-21T01:45:49.230Z,15.93
2023-03-21T01:48:19.486Z,13.52
2023-03-21T01:50:52.418Z,11.55
2023-03-21T01:53:38.234Z,12.20
2023-03-21T01:56:10.966Z,14.77
2023-03-21T01:59:08.442Z,10.68
2023-03-21T02:01:57.099Z,12.93
2023-03-21T02:04:28.345Z,12.23
2023-03-21T02:07:29.232Z,11.68
2023-03-21T02:10:08.148Z,13.75
2023-03-21T02:12:36.229Z,12.88
2023-03-21T02:15:07.571Z,14.55
2023-03-21T02:18:14.113Z,14.90
2023-03-21T02:21:09.576Z,13.48
2023-03-21T02:24:10.405Z,15.23
2023-03-21T02:27:11.873Z,15.88
2023-03-21T02:30:04.524Z,15.93
2023-03-21T02:32:51.198Z,14.75
2023-03-21T02:35:54.542Z,13.70
2023-03-21T02:38:43.332Z,18.23
2023-03-21T02:41:25.392Z,16.58
2023-03-21T02:44:16.498Z,12.07
2023-03-21T02:47:05.914Z,12.32
2023-03-21T02:49:45.376Z,11.77
2023-03-21T02:52:35.400Z,16.48
2023-03-21T02:55:14.057Z,14.23
2023-03-21T02:57:52.487Z,14.32
2023-03-21T03:00:24.659Z,15.85
2023-03-21T03:03:06.323Z,14.32
2023-03-21T03:05:45.931Z,14.88
2023-03-21T03:09:02.229Z,14.50
2023-03-21T03:11:35.123Z,14.93
2023-03-21T03:14:31.574Z,13.65
2023-03-21T03:17:37.452Z,14.77
2023-03-21T03:20:23.529Z,13.52
2023-03-21T03:23:04.550Z,16.80
2023-03-21T03:28:28.595Z,12.88
2023-03-21T03:31:08.505Z,13.25
2023-03-21T03:33:52.231Z,13.95
2023-03-21T03:36:32.195Z,13.68
2023-03-21T03:39:09.111Z,15.48
2023-03-21T03:42:09.753Z,12.30
2023-03-21T03:47:26.379Z,11.38
2023-03-21T03:50:12.035Z,8.88
2023-03-21T03:53:18.136Z,12.18
2023-03-21T03:55:49.236Z,12.73
2023-03-21T03:58:31.131Z,16.10
2023-03-21T04:01:08.016Z,10.40
2023-03-21T04:03:48.944Z,12.77
2023-03-21T04:06:20.101Z,10.07
2023-03-21T04:08:51.080Z,10.25
2023-03-21T04:11:19.164Z,13.52
2023-03-21T04:13:52.050Z,14.68
2023-03-21T04:16:24.352Z,12.20
2023-03-21T04:18:53.031Z,8.68
2023-03-21T04:21:21.982Z,11.85
2023-03-21T04:23:50.474Z,11.40
2023-03-21T04:26:21.354Z,9.77
2023-03-21T04:29:09.333Z,13.75
2023-03-21T04:32:01.422Z,13.05
2023-03-21T04:34:29.942Z,14.57
2023-03-21T04:37:00.909Z,13.50
2023-03-21T04:39:28.933Z,9.90
2023-03-21T04:41:57.380Z,9.77
2023-03-21T04:44:25.433Z,8.27
2023-03-21T04:46:53.231Z,10.68
2023-03-21T04:49:21.362Z,14.77
2023-03-21T04:51:49.063Z,8.95
2023-03-21T04:54:21.100Z,9.88
2023-03-21T04:56:48.995Z,8.02
2023-03-21T04:59:17.345Z,8.57
2023-03-21T05:01:50.175Z,10.52
2023-03-21T05:04:20.662Z,9.02
2023-03-21T05:06:48.479Z,9.80
2023-03-21T05:09:17.542Z,10.15
2023-03-21T05:11:45.524Z,12.55
2023-03-21T05:14:19.509Z,11.23
2023-03-21T05:16:53.292Z,11.68
2023-03-21T05:19:35.474Z,9.73
2023-03-21T05:22:10.158Z,10.10
2023-03-21T05:24:42.085Z,11.77
2023-03-21T05:27:34.125Z,11.15
2023-03-21T05:30:15.623Z,6.70
2023-03-21T05:32:43.695Z,14.50
2023-03-21T05:35:13.456Z,6.53
2023-03-21T05:37:41.647Z,13.80
2023-03-21T05:40:15.744Z,9.80
2023-03-21T05:42:47.170Z,11.60
2023-03-21T05:45:24.130Z,9.15
2023-03-21T05:47:55.739Z,9.68
2023-03-21T05:50:28.277Z,5.47
2023-03-21T05:53:09.997Z,13.43
2023-03-21T05:55:39.264Z,10.75
2023-03-21T05:58:15.390Z,10.32
2023-03-21T06:00:48.254Z,8.60
2023-03-21T06:03:28.140Z,9.23
2023-03-21T06:06:05.290Z,7.35
2023-03-21T06:08:40.869Z,9.55
2023-03-21T06:11:20.681Z,9.43
2023-03-21T06:13:50.194Z,12.02
2023-03-21T06:16:19.213Z,10.80
2023-03-21T06:18:46.962Z,8.50
2023-03-21T06:21:39.888Z,9.50
2023-03-21T06:24:09.973Z,11.40
2023-03-21T06:26:38.371Z,7.93
2023-03-21T06:29:06.415Z,8.05
2023-03-21T06:31:35.382Z,10.25
2023-03-21T06:34:06.777Z,7.68
2023-03-21T06:36:34.906Z,10.07
2023-03-21T06:39:03.981Z,8.88
2023-03-21T06:41:32.115Z,7.57
2023-03-21T06:44:04.211Z,10.13
2023-03-21T06:46:39.593Z,10.45
2023-03-21T06:49:08.329Z,11.57
2023-03-21T06:51:36.980Z,10.20
2023-03-21T06:54:14.734Z,8.25
2023-03-21T06:56:59.198Z,8.95
2023-03-21T06:59:31.264Z,6.78
2023-03-21T07:02:05.231Z,6.50
2023-03-21T07:04:37.710Z,10.32
2023-03-21T07:07:08.384Z,6.65
2023-03-21T07:09:37.326Z,10.07
2023-03-21T07:12:07.406Z,6.93
2023-03-21T07:17:28.024Z,7.03
2023-03-21T07:19:58.284Z,6.78
2023-03-21T07:22:28.769Z,6.10
2023-03-21T07:25:04.641Z,6.15
2023-03-21T07:27:40.952Z,6.60
2023-03-21T07:30:10.377Z,5.15
2023-03-21T07:32:38.937Z,7.82
2023-03-21T07:35:11.013Z,7.85
2023-03-21T07:37:40.054Z,5.45
2023-03-21T07:40:13.188Z,6.22
2023-03-21T07:42:41.886Z,7.80
2023-03-21T07:45:16.560Z,6.72
2023-03-21T07:47:47.422Z,7.45
2023-03-21T07:50:15.682Z,5.43
2023-03-21T07:52:43.911Z,7.03
2023-03-21T07:55:12.137Z,6.65
2023-03-21T07:57:40.560Z,8.25
2023-03-21T08:00:09.126Z,6.30
2023-03-21T08:02:43.620Z,8.38
2023-03-21T08:05:11.608Z,8.73
2023-03-21T08:07:41.848Z,6.50
2023-03-21T08:10:11.749Z,9.77
2023-03-21T08:12:39.910Z,7.15
2023-03-21T08:15:08.700Z,5.72
2023-03-21T08:20:10.242Z,5.78
2023-03-21T08:22:41.630Z,7.63
2023-03-21T08:25:13.943Z,5.80
2023-03-21T08:27:45.958Z,7.10
2023-03-21T08:30:16.652Z,6.50
2023-03-21T08:32:44.762Z,6.97
2023-03-21T08:35:15.990Z,6.93
2023-03-21T08:37:44.702Z,9.55
2023-03-21T08:40:16.198Z,6.97
2023-03-21T08:42:46.518Z,9.38
2023-03-21T08:45:17.917Z,7.22
2023-03-21T08:47:46.692Z,8.13
2023-03-21T08:50:18.593Z,8.15
2023-03-21T08:52:47.204Z,7.57
2023-03-21T08:55:18.514Z,10.02
2023-03-21T08:57:46.934Z,11.77
2023-03-21T09:00:18.441Z,7.72
2023-03-21T09:02:49.293Z,7.18
2023-03-21T09:05:17.364Z,7.25
2023-03-21T09:07:45.939Z,10.25
2023-03-21T09:10:22.105Z,7.78
2023-03-21T09:12:52.395Z,7.32
2023-03-21T09:15:22.148Z,11.10
2023-03-21T09:17:53.127Z,7.20
2023-03-21T09:20:31.257Z,5.65
2023-03-21T09:23:01.088Z,5.65
2023-03-21T09:25:38.596Z,8.38
2023-03-21T09:28:06.864Z,8.52
2023-03-21T09:30:36.840Z,8.25
2023-03-21T09:33:09.860Z,8.75
2023-03-21T09:35:38.237Z,6.95
2023-03-21T09:38:06.410Z,6.45
2023-03-21T09:40:35.089Z,8.95
2023-03-21T09:43:18.988Z,7.20
2023-03-21T09:46:13.549Z,8.98
2023-03-21T09:48:56.856Z,5.35
2023-03-21T09:51:39.850Z,10.02
2023-03-21T09:54:17.881Z,7.45
2023-03-21T09:56:47.688Z,5.65
2023-03-21T09:59:50.730Z,7.30
2023-03-21T10:02:38.689Z,8.65
2023-03-21T10:05:28.271Z,5.93
2023-03-21T10:08:05.458Z,7.50
2023-03-21T10:10:38.553Z,5.85
2023-03-21T10:13:21.216Z,5.13
2023-03-21T10:15:49.584Z,6.07
2023-03-21T10:18:27.442Z,7.15
2023-03-21T10:20:55.947Z,5.75
2023-03-21T10:23:29.182Z,6.50
2023-03-21T10:26:02.265Z,5.05
2023-03-21T10:28:52.086Z,5.13
2023-03-21T10:31:26.310Z,2.97
2023-03-21T10:34:02.641Z,4.25
2023-03-21T10:36:33.104Z,3.08
2023-03-21T10:39:16.140Z,3.97
2023-03-21T10:41:43.920Z,5.10
2023-03-21T10:44:18.133Z,3.22
2023-03-21T10:46:57.917Z,4.47
2023-03-21T10:49:30.139Z,7.80
2023-03-21T10:52:03.101Z,5.93
2023-03-21T10:54:33.611Z,6.80
2023-03-21T10:57:12.047Z,4.70
2023-03-21T10:59:49.591Z,3.88
2023-03-21T11:02:27.822Z,3.95
2023-03-21T11:04:56.470Z,4.03
2023-03-21T11:07:31.677Z,6.03
2023-03-21T11:10:01.301Z,3.65
2023-03-21T11:12:41.355Z,5.20
2023-03-21T11:15:33.762Z,4.50
2023-03-21T11:18:15.732Z,5.68
2023-03-21T11:20:58.482Z,7.22
2023-03-21T11:23:29.767Z,4.60
2023-03-21T11:26:00.579Z,6.80
2023-03-21T11:28:38.442Z,7.15
2023-03-21T11:31:09.499Z,7.47
2023-03-21T11:33:46.071Z,5.88
2023-03-21T11:36:22.398Z,6.40
2023-03-21T11:38:59.589Z,9.50
2023-03-21T11:41:33.147Z,6.05
2023-03-21T11:44:02.802Z,7.45
2023-03-21T11:46:33.062Z,5.55
2023-03-21T11:49:01.516Z,8.02
2023-03-21T11:51:46.894Z,8.98
2023-03-21T11:55:03.833Z,7.03
2023-03-21T11:58:00.154Z,4.10
2023-03-21T12:01:10.205Z,7.05
2023-03-21T12:03:57.608Z,6.35
2023-03-21T12:06:37.477Z,10.65
2023-03-21T12:09:13.108Z,9.02
2023-03-21T12:11:54.872Z,6.07
2023-03-21T12:14:42.896Z,6.57
2023-03-21T12:17:35.977Z,6.28
2023-03-21T12:20:33.436Z,4.18
2023-03-21T12:23:19.352Z,7.47
2023-03-21T12:26:12.806Z,6.43
2023-03-21T12:28:49.853Z,6.20
2023-03-21T12:31:26.845Z,6.63
2023-03-21T12:34:09.739Z,8.18
2023-03-21T12:37:07.264Z,8.43
2023-03-21T12:39:40.835Z,5.35
2023-03-21T12:42:35.981Z,8.07
2023-03-21T12:45:15.822Z,5.65
2023-03-21T12:47:49.959Z,6.43
2023-03-21T12:50:37.471Z,6.47
2023-03-21T12:53:39.128Z,7.43
2023-03-21T12:56:13.332Z,5.95
2023-03-21T12:58:57.667Z,9.50
2023-03-21T13:01:32.888Z,6.97
2023-03-21T13:04:32.593Z,5.25
2023-03-21T13:07:03.676Z,7.82
2023-03-21T13:09:41.594Z,6.10
2023-03-21T13:12:31.876Z,6.90
2023-03-21T13:15:24.390Z,7.82
2023-03-21T13:18:01.168Z,4.10
2023-03-21T13:20:35.589Z,5.60
2023-03-21T13:23:04.212Z,8.07
2023-03-21T13:25:35.521Z,4.65
2023-03-21T13:28:05.444Z,10.45
2023-03-21T13:30:33.815Z,4.50
2023-03-21T13:33:20.613Z,4.63
2023-03-21T13:36:05.641Z,5.93
2023-03-21T13:38:40.063Z,6.72
2023-03-21T13:41:19.521Z,6.70
2023-03-21T13:44:02.320Z,4.38
2023-03-21T13:46:34.135Z,9.38
2023-03-21T13:49:08.273Z,4.72
2023-03-21T13:51:52.822Z,5.55
2023-03-21T13:54:38.895Z,6.25
2023-03-21T13:57:20.400Z,5.78
2023-03-21T13:59:49.028Z,6.35
2023-03-21T14:02:29.942Z,5.72
2023-03-21T14:05:17.313Z,3.90
2023-03-21T14:07:49.870Z,9.82
2023-03-21T14:10:24.225Z,7.13
2023-03-21T14:12:53.187Z,9.48
2023-03-21T14:15:27.692Z,8.45
2023-03-21T14:17:58.742Z,6.95
2023-03-21T14:20:39.258Z,6.03
2023-03-21T14:23:13.173Z,8.27
2023-03-21T14:25:47.483Z,12.85
2023-03-21T14:28:18.708Z,9.10
2023-03-21T14:30:51.962Z,8.88
2023-03-21T14:33:29.804Z,6.75
2023-03-21T14:38:34.123Z,6.75
2023-03-21T14:41:03.201Z,8.23
2023-03-21T14:43:34.093Z,6.43
2023-03-21T14:46:02.304Z,5.35
2023-03-21T14:48:32.992Z,5.47
2023-03-21T14:51:08.217Z,9.18
2023-03-21T14:53:42.406Z,7.88
2023-03-21T14:56:16.396Z,8.55
2023-03-21T14:58:46.351Z,4.95
2023-03-21T15:01:20.697Z,6.75
2023-03-21T15:03:52.076Z,8.25
2023-03-21T15:06:20.355Z,8.48
2023-03-21T15:09:03.813Z,6.50
2023-03-21T15:11:34.560Z,8.40
2023-03-21T15:14:06.301Z,7.10
2023-03-21T15:16:36.039Z,6.18
2023-03-21T15:19:05.280Z,6.00
2023-03-21T15:21:41.690Z,6.78
2023-03-21T15:24:17.879Z,8.45
2023-03-21T15:26:50.673Z,10.52
2023-03-21T15:29:19.180Z,10.80
2023-03-21T15:31:48.755Z,8.75
2023-03-21T15:34:28.431Z,7.68
2023-03-21T15:37:01.791Z,7.25
2023-03-21T15:39:29.719Z,7.50
2023-03-21T15:42:05.389Z,5.47
2023-03-21T15:44:36.641Z,8.30
2023-03-21T15:47:05.011Z,11.35
2023-03-21T15:49:36.964Z,7.82
2023-03-21T15:52:12.828Z,8.90
2023-03-21T15:54:56.051Z,7.28
2023-03-21T15:57:32.976Z,6.00
2023-03-21T16:00:15.153Z,7.82
2023-03-21T16:02:43.772Z,6.18
2023-03-21T16:05:23.874Z,7.50
2023-03-21T16:07:52.151Z,6.18
2023-03-21T16:10:37.572Z,3.75
2023-03-21T16:13:06.694Z,11.27
2023-03-21T16:15:39.485Z,8.65
2023-03-21T16:18:10.918Z,10.73
2023-03-21T16:20:45.038Z,6.13
2023-03-21T16:23:14.232Z,9.63
2023-03-21T16:25:45.866Z,7.30
2023-03-21T16:28:16.802Z,8.48
2023-03-21T16:30:45.542Z,4.60
2023-03-21T16:33:14.028Z,9.18
2023-03-21T16:35:41.812Z,10.88
2023-03-21T16:38:12.528Z,6.90
2023-03-21T16:40:43.401Z,4.20
2023-03-21T16:43:12.482Z,7.55
2023-03-21T16:45:40.616Z,6.43
2023-03-21T16:48:16.590Z,9.35
2023-03-21T16:50:48.008Z,10.23
2023-03-21T16:53:17.151Z,10.13
2023-03-21T16:55:45.126Z,12.85
2023-03-21T16:58:15.910Z,9.98
2023-03-21T17:00:43.696Z,9.30
2023-03-21T17:03:19.135Z,7.88
2023-03-21T17:05:47.321Z,10.43
2023-03-21T17:08:17.986Z,8.50
2023-03-21T17:10:46.269Z,8.75
2023-03-21T17:13:14.595Z,6.75
2023-03-21T17:15:42.462Z,7.78
2023-03-21T17:18:13.161Z,8.68
2023-03-21T17:20:41.921Z,9.30
2023-03-21T17:23:10.998Z,7.90
2023-03-21T17:25:38.863Z,9.38
2023-03-21T17:28:06.907Z,8.52
2023-03-21T17:30:40.142Z,8.05
2023-03-21T17:33:08.619Z,5.78
2023-03-21T17:35:37.148Z,5.70
2023-03-21T17:38:11.188Z,8.77
2023-03-21T17:40:40.803Z,11.27
2023-03-21T17:43:16.940Z,7.38
2023-03-21T17:45:44.999Z,8.48
2023-03-21T17:48:13.054Z,5.57
2023-03-21T17:50:41.147Z,6.75
2023-03-21T17:53:09.383Z,6.20
2023-03-21T17:55:37.248Z,5.00
2023-03-21T17:58:07.395Z,5.60
2023-03-21T18:00:35.185Z,4.63
2023-03-21T18:03:03.266Z,6.00
2023-03-21T18:05:31.021Z,4.38
2023-03-21T18:08:10.288Z,5.10
2023-03-21T18:10:40.958Z,5.53
2023-03-21T18:13:09.285Z,8.57
2023-03-21T18:15:38.245Z,5.55
2023-03-21T18:18:06.693Z,8.02
2023-03-21T18:20:54.323Z,7.10
2023-03-21T18:23:23.093Z,7.07
2023-03-21T18:25:52.577Z,7.07
2023-03-21T18:28:21.773Z,6.78
2023-03-21T18:31:08.614Z,8.13
2023-03-21T18:33:40.521Z,10.23
2023-03-21T18:36:09.932Z,10.30
2023-03-21T18:38:38.580Z,7.85
2023-03-21T18:41:10.261Z,9.25
2023-03-21T18:44:01.019Z,5.10
2023-03-21T18:46:27.325Z,6.40
2023-03-21T18:48:55.665Z,9.00
2023-03-21T18:51:23.619Z,6.38
2023-03-21T18:53:51.751Z,9.00
2023-03-21T18:57:05.864Z,2.80
2023-03-21T18:59:08.601Z,9.55
2023-03-21T19:01:36.912Z,7.07
2023-03-21T19:04:21.021Z,5.10
2023-03-21T19:06:50.702Z,8.52
2023-03-21T19:09:18.981Z,7.43
2023-03-21T19:11:47.230Z,8.52
2023-03-21T19:14:16.952Z,10.00
2023-03-21T19:17:26.662Z,7.93
2023-03-21T19:19:33.882Z,7.05
2023-03-21T19:22:01.894Z,6.95
2023-03-21T19:24:30.006Z,10.55
2023-03-21T19:26:58.074Z,5.78
2023-03-21T19:29:26.342Z,8.15
2023-03-21T19:31:54.397Z,10.88
2023-03-21T19:34:22.453Z,6.63
2023-03-21T19:36:51.793Z,8.38
2023-03-21T19:39:22.778Z,15.32
2023-03-21T19:41:51.670Z,8.70
2023-03-21T19:46:51.235Z,12.10
2023-03-21T19:49:22.258Z,10.15
2023-03-21T19:51:51.281Z,13.33
2023-03-21T19:54:23.503Z,8.20
2023-03-21T19:56:51.677Z,10.75
2023-03-21T19:59:20.508Z,12.93
2023-03-21T20:01:48.783Z,13.55
2023-03-21T20:04:18.029Z,12.68
2023-03-21T20:06:46.185Z,11.60
2023-03-21T20:09:50.132Z,14.93
2023-03-21T20:12:03.383Z,13.70
2023-03-21T20:14:32.146Z,10.57
2023-03-21T20:16:59.977Z,18.75
2023-03-21T20:19:28.039Z,10.00
2023-03-21T20:21:59.821Z,11.55
2023-03-21T20:24:30.460Z,9.77
2023-03-21T20:26:58.355Z,10.95
2023-03-21T20:32:14.409Z,13.07
2023-03-21T20:34:44.386Z,13.93
2023-03-21T20:37:12.371Z,9.50
2023-03-21T20:39:40.611Z,18.23
2023-03-21T20:42:09.073Z,8.63
2023-03-21T20:44:58.850Z,11.93
2023-03-21T20:47:28.163Z,13.20
2023-03-21T20:49:59.782Z,12.90
2023-03-21T20:52:54.895Z,11.90
2023-03-21T20:55:17.442Z,12.82
2023-03-21T20:57:46.092Z,11.05
2023-03-21T21:00:17.143Z,10.43
2023-03-21T21:02:46.473Z,10.30
2023-03-21T21:05:34.607Z,9.88
2023-03-21T21:08:03.650Z,7.45
2023-03-21T21:10:36.446Z,11.45
2023-03-21T21:13:12.804Z,11.13
2023-03-21T21:15:40.830Z,10.98
2023-03-21T21:18:10.013Z,9.55
2023-03-21T21:20:38.945Z,10.82
2023-03-21T21:23:09.517Z,9.23
2023-03-21T21:25:38.730Z,11.27
2023-03-21T21:28:09.685Z,8.60
2023-03-21T21:30:42.732Z,8.15
2023-03-21T21:33:10.731Z,12.02
2023-03-21T21:35:39.495Z,9.07
2023-03-21T21:38:07.447Z,11.82
2023-03-21T21:40:36.402Z,8.40
2023-03-21T21:43:04.441Z,8.75
2023-03-21T21:45:32.524Z,11.27
2023-03-21T21:48:00.712Z,7.97
2023-03-21T21:50:29.300Z,6.32
2023-03-21T21:52:57.228Z,10.15
2023-03-21T21:55:25.294Z,7.80
2023-03-21T21:57:58.064Z,11.90
2023-03-21T22:00:28.976Z,10.35
2023-03-21T22:02:58.233Z,8.17
2023-03-21T22:05:26.904Z,8.13
2023-03-21T22:07:56.862Z,26.08
2023-03-21T22:10:27.341Z,11.33
2023-03-21T22:12:55.268Z,6.82
2023-03-21T22:15:23.997Z,8.57
2023-03-21T22:17:51.772Z,10.98
2023-03-21T22:20:21.335Z,12.85
2023-03-21T22:22:49.297Z,12.02
2023-03-21T22:25:20.316Z,10.75
2023-03-21T22:27:50.882Z,10.43
2023-03-21T22:30:21.622Z,7.78
2023-03-21T22:33:02.513Z,11.65
2023-03-21T22:35:36.521Z,13.15
2023-03-21T22:38:04.358Z,11.48
2023-03-21T22:40:34.670Z,10.35
2023-03-21T22:43:05.711Z,9.00
2023-03-21T22:45:35.300Z,10.10
2023-03-21T22:48:03.513Z,13.13
2023-03-21T22:50:31.747Z,12.70
2023-03-21T22:52:59.468Z,10.50
2023-03-21T22:55:27.854Z,10.10
2023-03-21T22:57:55.856Z,12.20
2023-03-21T23:00:24.257Z,11.63
2023-03-21T23:02:52.377Z,9.80
2023-03-21T23:05:20.356Z,8.07
2023-03-21T23:07:48.089Z,11.27
2023-03-21T23:10:16.358Z,11.35
2023-03-21T23:12:44.606Z,11.57
2023-03-21T23:15:12.689Z,12.70
2023-03-21T23:17:40.910Z,15.05
2023-03-21T23:20:09.695Z,8.55
2023-03-21T23:22:40.367Z,9.50
2023-03-21T23:25:08.865Z,6.70
2023-03-21T23:27:36.889Z,9.52
2023-03-21T23:30:06.574Z,7.32
2023-03-21T23:32:34.524Z,12.00
2023-03-21T23:35:02.764Z,7.97
2023-03-21T23:37:30.574Z,10.25
2023-03-21T23:39:58.559Z,9.05
2023-03-21T23:42:29.377Z,7.93
2023-03-21T23:44:57.513Z,9.05
2023-03-21T23:47:25.329Z,11.48
2023-03-21T23:49:53.330Z,11.52
2023-03-21T23:52:21.484Z,7.20
2023-03-21T23:54:49.546Z,7.07
2023-03-21T23:57:18.087Z,8.20
2023-03-21T23:59:47.064Z,8.50
